Time;durP1;ratioP1;P1;durP2;ratioP2;P2;SDS_P1;SDS_P2;PMS_P1;PMS_P2;Temp;Humidity;BMP_temperature;BMP_pressure;BME280_temperature;BME280_humidity;BME280_pressure;Samples;Min_cycle;Max_cycle;Signal;HPM_P1;HPM_P2
2022/03/19 00:01:52;;;;;;;11.07;1.25;;;;;;;3.62;94.24;104712.22;4997756;28;20068;-76
2022/03/19 00:04:18;;;;;;;2.55;0.75;;;;;;;3.67;93.73;104720.88;5000343;28;20034;-76
2022/03/19 00:06:46;;;;;;;6.82;1.65;;;;;;;3.58;94.25;104702.66;5016187;28;20029;-76
2022/03/19 00:09:12;;;;;;;8.63;1.00;;;;;;;3.66;94.24;104719.16;5017223;28;20130;-77
2022/03/19 00:11:38;;;;;;;8.18;1.60;;;;;;;3.62;93.74;104712.22;5014868;28;20030;-77
2022/03/19 00:14:04;;;;;;;9.35;1.40;;;;;;;3.59;94.72;104725.28;5016121;28;20034;-78
2022/03/19 00:16:29;;;;;;;6.03;1.65;;;;;;;3.44;94.38;104702.75;5016636;28;20084;-76
2022/03/19 00:18:55;;;;;;;7.55;1.20;;;;;;;3.47;95.25;104699.25;5018000;28;20053;-77
2022/03/19 00:21:20;;;;;;;5.07;1.05;;;;;;;3.60;95.03;104721.81;5018541;28;20045;-77
2022/03/19 00:23:47;;;;;;;13.82;1.88;;;;;;;3.47;95.46;104697.50;5019075;28;20026;-76
2022/03/19 00:26:14;;;;;;;9.75;1.50;;;;;;;3.64;96.10;104725.28;5017292;28;20426;-77
2022/03/19 00:28:40;;;;;;;9.05;1.92;;;;;;;3.65;96.70;104727.88;5016861;28;20049;-76
2022/03/19 00:31:06;;;;;;;8.68;1.88;;;;;;;3.63;95.92;104719.16;5017401;28;20026;-77
2022/03/19 00:33:32;;;;;;;10.07;2.17;;;;;;;3.55;96.24;104702.69;5015208;28;20026;-76
2022/03/19 00:35:58;;;;;;;9.02;1.55;;;;;;;3.51;95.84;104714.03;5018650;28;20022;-77
2022/03/19 00:38:23;;;;;;;7.65;2.45;;;;;;;3.58;96.52;104725.31;5018001;28;20037;-76
2022/03/19 00:40:49;;;;;;;11.65;2.35;;;;;;;3.48;95.84;104698.38;5014979;28;20048;-77
2022/03/19 00:43:15;;;;;;;11.02;2.78;;;;;;;3.53;96.50;104719.22;5014705;28;20413;-77
2022/03/19 00:45:41;;;;;;;6.60;1.42;;;;;;;3.54;96.83;104723.59;5001635;28;20113;-77
2022/03/19 00:48:07;;;;;;;7.20;1.55;;;;;;;3.55;96.14;104720.97;5017151;28;20090;-77
2022/03/19 00:50:32;;;;;;;8.40;1.10;;;;;;;3.54;96.17;104720.97;5018742;28;20030;-77
2022/03/19 00:52:57;;;;;;;11.95;1.55;;;;;;;3.47;95.88;104717.53;5014425;28;20397;-77
2022/03/19 00:55:23;;;;;;;10.20;1.33;;;;;;;3.53;97.01;104722.72;4996396;28;20033;-77
2022/03/19 00:57:48;;;;;;;12.65;2.33;;;;;;;3.50;95.77;104723.59;5014544;28;20054;-76
2022/03/19 01:00:16;;;;;;;5.20;1.52;;;;;;;3.54;97.24;104714.00;5017849;28;20052;-76
2022/03/19 01:02:43;;;;;;;6.50;2.22;;;;;;;3.53;97.44;104711.41;5015543;28;20168;-77
2022/03/19 01:05:10;;;;;;;9.38;2.35;;;;;;;3.57;97.45;104716.63;5016454;28;20099;-77
2022/03/19 01:07:42;;;;;;;6.50;1.60;;;;;;;3.49;98.13;104700.13;5014384;28;20105;-75
2022/03/19 01:10:08;;;;;;;5.15;1.60;;;;;;;3.52;98.53;104696.63;5013459;28;20053;-76
2022/03/19 01:12:34;;;;;;;5.40;1.33;;;;;;;3.64;98.18;104705.25;5000104;28;20064;-75
2022/03/19 01:14:59;;;;;;;6.47;1.77;;;;;;;3.65;98.17;104709.56;5001127;28;20565;-77
2022/03/19 01:17:27;;;;;;;8.85;1.75;;;;;;;3.67;98.72;104712.19;5013041;28;20390;-76
2022/03/19 01:19:57;;;;;;;6.25;1.65;;;;;;;2.95;98.98;104600.34;5016507;28;20035;-77
2022/03/19 01:22:22;;;;;;;3.50;1.63;;;;;;;3.66;98.46;104713.94;5017106;28;20037;-78
2022/03/19 01:24:49;;;;;;;8.70;1.75;;;;;;;3.67;99.47;104707.81;5011993;28;20645;-76
2022/03/19 01:27:14;;;;;;;5.38;2.40;;;;;;;3.60;99.01;104692.22;5015007;28;20025;-76
2022/03/19 01:29:39;;;;;;;10.07;2.10;;;;;;;3.55;98.05;104694.88;5018486;28;20075;-75
2022/03/19 01:32:05;;;;;;;11.05;1.90;;;;;;;3.52;98.52;104689.63;5019187;28;20064;-75
2022/03/19 01:34:30;;;;;;;9.93;1.95;;;;;;;3.59;99.00;104700.91;5004675;28;20107;-75
2022/03/19 01:36:56;;;;;;;8.13;1.92;;;;;;;3.53;98.38;104701.84;4999164;28;20353;-75
2022/03/19 01:39:21;;;;;;;15.57;2.50;;;;;;;3.55;97.99;104699.19;5004216;28;20033;-75
2022/03/19 01:41:47;;;;;;;5.28;1.92;;;;;;;3.58;98.62;104712.25;5018342;28;20025;-76
2022/03/19 01:44:22;;;;;;;8.30;2.20;;;;;;;3.53;98.24;104700.94;5017301;28;20037;-76
2022/03/19 01:47:04;;;;;;;7.32;1.42;;;;;;;3.52;98.32;104702.69;5016621;28;20562;-76
2022/03/19 01:49:30;;;;;;;9.13;1.83;;;;;;;3.48;98.77;104698.38;5026571;28;20036;-76
2022/03/19 01:51:57;;;;;;;7.55;2.13;;;;;;;3.45;98.68;104699.25;5019453;28;20086;-76
2022/03/19 01:54:43;;;;;;;8.10;1.65;;;;;;;3.43;98.85;104700.16;5016633;28;20091;-76
2022/03/19 01:57:11;;;;;;;9.00;1.70;;;;;;;3.34;98.75;104695.00;5020181;28;20033;-76
2022/03/19 01:59:37;;;;;;;10.77;2.33;;;;;;;3.45;99.25;104707.09;5019213;28;20087;-76
2022/03/19 02:02:07;;;;;;;8.15;2.03;;;;;;;3.25;99.30;104670.66;5018041;28;20029;-76
2022/03/19 02:04:37;;;;;;;4.72;2.25;;;;;;;3.41;100.00;104694.06;5016985;28;20226;-76
2022/03/19 02:07:03;;;;;;;7.20;1.95;;;;;;;3.43;100.00;104698.41;5019141;28;20022;-76
2022/03/19 02:09:29;;;;;;;5.30;2.17;;;;;;;3.39;100.00;104691.44;4988913;28;20492;-77
2022/03/19 02:11:55;;;;;;;7.82;2.50;;;;;;;3.45;100.00;104694.03;5018026;28;20037;-76
2022/03/19 02:14:21;;;;;;;9.40;1.77;;;;;;;3.26;99.92;104663.69;5015623;28;20034;-76
2022/03/19 02:16:47;;;;;;;4.90;2.05;;;;;;;3.35;100.00;104675.81;5021134;28;20125;-76
2022/03/19 02:19:13;;;;;;;9.25;2.28;;;;;;;3.39;100.00;104683.63;5017730;28;20051;-76
2022/03/19 02:21:44;;;;;;;8.00;1.98;;;;;;;3.45;100.00;104687.94;5017881;28;20580;-76
2022/03/19 02:26:55;;;;;;;9.25;2.58;;;;;;;3.47;100.00;104680.97;5021102;28;19923;-76
2022/03/19 02:29:20;;;;;;;12.15;1.90;;;;;;;3.41;100.00;104673.16;5018952;28;20474;-76
2022/03/19 02:31:49;;;;;;;8.23;1.95;;;;;;;3.42;100.00;104681.00;5016207;28;20053;-77
2022/03/19 02:34:14;;;;;;;15.02;3.70;;;;;;;3.38;100.00;104676.69;5024448;28;20040;-77
2022/03/19 02:36:42;;;;;;;13.95;2.92;;;;;;;3.39;99.94;104683.63;5017776;28;20022;-76
2022/03/19 02:39:12;;;;;;;12.10;2.53;;;;;;;3.37;99.60;104689.72;5021546;28;20202;-76
2022/03/19 02:41:47;;;;;;;9.20;2.88;;;;;;;3.32;99.91;104676.72;5024572;28;20021;-77
2022/03/19 02:44:14;;;;;;;6.57;2.17;;;;;;;3.35;100.00;104681.91;5017498;28;20017;-76
2022/03/19 02:46:41;;;;;;;11.52;3.25;;;;;;;3.24;99.98;104676.72;5016735;28;20438;-77
2022/03/19 02:49:07;;;;;;;8.68;2.63;;;;;;;3.28;99.93;104681.06;5013862;28;20485;-77
2022/03/19 02:51:34;;;;;;;12.00;3.58;;;;;;;3.29;99.80;104676.72;5018939;28;20026;-76
2022/03/19 02:54:01;;;;;;;6.10;2.30;;;;;;;3.20;98.81;104672.44;5016107;28;20037;-76
2022/03/19 02:56:26;;;;;;;7.45;2.13;;;;;;;3.24;99.25;104681.94;5019593;28;20036;-76
2022/03/19 02:58:52;;;;;;;12.32;2.70;;;;;;;3.20;98.68;104667.22;5002595;28;20414;-76
2022/03/19 03:01:17;;;;;;;17.15;3.25;;;;;;;3.23;99.31;104676.75;5017982;28;20060;-77
2022/03/19 03:03:43;;;;;;;5.85;2.55;;;;;;;3.23;99.37;104682.84;5016481;28;20084;-77
2022/03/19 03:06:08;;;;;;;11.93;3.25;;;;;;;3.22;100.00;104675.91;5017805;28;20029;-76
2022/03/19 03:08:34;;;;;;;6.38;2.67;;;;;;;2.85;100.00;104623.00;5018700;28;20461;-76
2022/03/19 03:10:59;;;;;;;10.65;3.25;;;;;;;3.09;99.54;104664.66;5013795;28;20026;-76
2022/03/19 03:13:24;;;;;;;9.05;2.67;;;;;;;3.13;99.29;104672.44;5014497;28;20038;-77
2022/03/19 03:15:50;;;;;;;8.00;2.47;;;;;;;3.01;98.35;104655.13;5000558;28;20037;-77
2022/03/19 03:18:16;;;;;;;4.93;2.40;;;;;;;3.02;98.28;104656.84;5004257;28;20116;-76
2022/03/19 03:20:41;;;;;;;8.70;2.35;;;;;;;3.04;97.68;104670.75;5015364;28;20127;-76
2022/03/19 03:23:06;;;;;;;13.10;3.35;;;;;;;3.05;98.89;104672.50;5022113;28;20033;-77
2022/03/19 03:25:32;;;;;;;2.60;2.03;;;;;;;3.06;99.25;104663.78;5017428;28;20084;-76
2022/03/19 03:27:58;;;;;;;9.00;2.63;;;;;;;3.07;99.16;104670.72;5016985;28;20048;-76
2022/03/19 03:30:23;;;;;;;7.38;3.10;;;;;;;3.06;98.49;104663.78;5013724;28;20495;-76
2022/03/19 03:32:49;;;;;;;9.40;2.75;;;;;;;3.04;99.08;104665.53;5016266;28;20026;-76
2022/03/19 03:35:14;;;;;;;8.45;2.90;;;;;;;2.93;98.91;104651.66;5018286;28;20030;-76
2022/03/19 03:37:39;;;;;;;8.25;2.83;;;;;;;2.95;99.08;104665.59;4986244;28;20368;-76
2022/03/19 03:40:05;;;;;;;12.00;3.53;;;;;;;2.91;99.67;104664.72;5016431;28;20036;-77
2022/03/19 03:42:31;;;;;;;15.60;3.03;;;;;;;2.67;99.50;104623.94;5001785;28;20037;-77
2022/03/19 03:44:58;;;;;;;12.88;4.20;;;;;;;2.80;99.57;104651.72;5017035;28;20026;-76
2022/03/19 03:47:27;;;;;;;13.18;3.42;;;;;;;2.76;100.00;104652.59;4986660;28;20030;-76
2022/03/19 03:49:53;;;;;;;12.63;5.30;;;;;;;2.83;99.87;104671.69;5014636;28;20481;-76
2022/03/19 03:52:20;;;;;;;8.65;3.90;;;;;;;2.81;100.00;104663.91;5014345;28;20033;-76
2022/03/19 03:54:45;;;;;;;21.70;4.55;;;;;;;2.73;100.00;104649.16;5015805;28;20037;-76
2022/03/19 03:57:11;;;;;;;12.75;4.22;;;;;;;2.85;100.00;104668.25;5002975;28;20379;-76
2022/03/19 03:59:37;;;;;;;16.02;4.35;;;;;;;2.86;100.00;104667.34;5017750;28;20360;-76
2022/03/19 04:02:02;;;;;;;14.23;4.65;;;;;;;2.87;100.00;104665.59;5013338;28;20262;-76
2022/03/19 04:04:28;;;;;;;10.65;4.68;;;;;;;2.84;100.00;104663.00;5013094;28;20041;-77
2022/03/19 04:06:53;;;;;;;8.18;4.30;;;;;;;2.84;100.00;104669.09;4997783;28;20028;-76
2022/03/19 04:09:18;;;;;;;14.75;4.80;;;;;;;2.82;100.00;104665.63;5020128;28;20033;-76
2022/03/19 04:11:44;;;;;;;13.90;5.65;;;;;;;2.78;100.00;104663.88;5020526;28;20128;-76
2022/03/19 04:14:10;;;;;;;12.57;5.45;;;;;;;2.76;100.00;104660.41;5018230;28;20129;-77
2022/03/19 04:16:37;;;;;;;12.32;4.93;;;;;;;2.84;100.00;104673.44;4997409;28;20557;-77
2022/03/19 04:19:02;;;;;;;20.02;6.55;;;;;;;2.83;100.00;104677.81;5013149;28;20429;-77
2022/03/19 04:21:28;;;;;;;28.35;6.60;;;;;;;2.78;100.00;104666.50;5014942;28;20037;-76
2022/03/19 04:23:53;;;;;;;15.77;6.07;;;;;;;2.76;100.00;104665.63;5020826;28;20022;-77
2022/03/19 04:26:19;;;;;;;17.92;5.85;;;;;;;2.82;100.00;104683.03;4996578;28;20029;-76
2022/03/19 04:28:44;;;;;;;13.48;5.75;;;;;;;2.78;100.00;104679.53;5016005;28;20030;-77
2022/03/19 04:31:09;;;;;;;13.77;5.75;;;;;;;2.78;100.00;104676.06;5020313;28;20033;-77
2022/03/19 04:33:35;;;;;;;13.52;6.85;;;;;;;2.76;100.00;104676.06;5018310;28;20033;-77
2022/03/19 04:38:44;;;;;;;13.25;6.40;;;;;;;2.67;100.00;104682.19;5020805;28;20055;-76
2022/03/19 04:41:12;;;;;;;26.38;7.30;;;;;;;2.64;100.00;104689.16;5010560;28;20021;-77
2022/03/19 04:43:38;;;;;;;16.15;6.32;;;;;;;2.60;100.00;104684.84;5019074;28;20124;-77
2022/03/19 04:46:04;;;;;;;24.33;7.28;;;;;;;2.50;100.00;104668.31;5015716;28;20037;-77
2022/03/19 04:48:30;;;;;;;16.80;7.40;;;;;;;2.47;100.00;104661.38;5015573;28;20494;-77
2022/03/19 04:50:55;;;;;;;17.48;7.78;;;;;;;2.50;100.00;104683.09;4988690;28;20520;-76
2022/03/19 04:53:21;;;;;;;10.77;6.07;;;;;;;2.51;100.00;104664.00;4998235;28;20054;-76
2022/03/19 04:55:47;;;;;;;19.70;7.80;;;;;;;2.49;100.00;104673.56;5009443;28;20034;-77
2022/03/19 04:58:13;;;;;;;19.13;7.18;;;;;;;2.33;100.00;104649.25;5011588;28;20041;-77
2022/03/19 05:00:38;;;;;;;16.17;7.60;;;;;;;2.39;100.00;104662.25;4993602;28;20497;-77
2022/03/19 05:03:09;;;;;;;18.02;7.47;;;;;;;2.41;100.00;104665.75;5009990;28;20022;-77
2022/03/19 05:05:35;;;;;;;21.17;7.47;;;;;;;2.42;100.00;104670.97;5010598;28;20033;-77
2022/03/19 05:08:00;;;;;;;12.73;6.43;;;;;;;2.44;100.00;104670.97;5019589;28;20021;-77
2022/03/19 05:13:10;;;;;;;17.00;6.90;;;;;;;2.49;100.00;104677.03;5020046;28;20048;-77
2022/03/19 05:15:36;;;;;;;12.23;6.85;;;;;;;2.47;100.00;104668.34;5016224;28;20029;-77
2022/03/19 05:18:02;;;;;;;15.55;7.47;;;;;;;2.37;100.00;104656.19;5013724;28;20041;-77
2022/03/19 05:20:28;;;;;;;15.55;7.28;;;;;;;2.45;100.00;104683.97;5020013;28;20034;-77
2022/03/19 05:22:53;;;;;;;16.75;8.85;;;;;;;2.44;100.00;104679.66;5020563;28;20750;-77
2022/03/19 05:25:19;;;;;;;18.77;8.57;;;;;;;2.38;100.00;104682.25;4995657;28;20029;-78
2022/03/19 05:27:44;;;;;;;18.50;7.28;;;;;;;2.39;100.00;104676.16;5014966;28;20038;-78
2022/03/19 05:30:10;;;;;;;17.08;7.57;;;;;;;2.28;100.00;104667.50;5004405;28;20029;-78
2022/03/19 05:32:36;;;;;;;17.90;7.63;;;;;;;2.26;100.00;104664.03;4999709;28;20041;-79
2022/03/19 05:35:03;;;;;;;23.52;8.68;;;;;;;2.32;100.00;104674.44;5015815;28;20333;-77
2022/03/19 05:37:28;;;;;;;16.77;7.50;;;;;;;2.16;100.00;104652.75;5013857;28;20033;-77
2022/03/19 05:39:55;;;;;;;20.75;8.02;;;;;;;2.31;100.00;104687.47;5004501;28;20088;-78
2022/03/19 05:42:21;;;;;;;17.80;8.15;;;;;;;2.30;100.00;104684.00;5018329;28;20033;-77
2022/03/19 05:44:47;;;;;;;15.93;7.63;;;;;;;2.30;100.00;104689.22;5017060;28;20072;-77
2022/03/19 05:47:13;;;;;;;19.00;8.52;;;;;;;2.27;100.00;104686.63;5018224;28;20049;-78
2022/03/19 05:49:40;;;;;;;17.20;7.07;;;;;;;2.19;100.00;104675.34;5018904;28;20460;-77
2022/03/19 05:52:06;;;;;;;15.18;7.43;;;;;;;2.29;100.00;104705.75;4998260;28;20032;-77
2022/03/19 05:54:31;;;;;;;17.30;7.38;;;;;;;2.20;100.00;104680.56;5017855;28;20029;-77
2022/03/19 05:56:57;;;;;;;15.32;7.63;;;;;;;2.29;100.00;104710.06;5012206;28;20403;-78
2022/03/19 05:59:22;;;;;;;17.63;7.85;;;;;;;2.21;100.00;104697.91;5016197;28;20030;-78
2022/03/19 06:01:48;;;;;;;12.73;7.60;;;;;;;2.32;100.00;104697.91;5008032;28;20038;-78
2022/03/19 06:04:15;;;;;;;16.45;7.75;;;;;;;2.35;100.00;104705.75;5017016;28;20080;-78
2022/03/19 06:06:41;;;;;;;11.88;6.63;;;;;;;2.42;100.00;104710.06;5020751;28;20255;-78
2022/03/19 06:09:07;;;;;;;16.45;7.15;;;;;;;2.30;100.00;104694.44;5022366;28;20109;-77
2022/03/19 06:11:32;;;;;;;18.45;7.63;;;;;;;2.41;100.00;104702.25;5018307;28;20033;-79
2022/03/19 06:13:57;;;;;;;19.60;6.18;;;;;;;2.48;100.00;104706.56;5022986;28;20061;-78
2022/03/19 06:16:23;;;;;;;18.52;8.13;;;;;;;2.42;100.00;104702.25;5017871;28;20030;-77
2022/03/19 06:18:51;;;;;;;16.50;7.13;;;;;;;2.44;100.00;104689.22;5015811;28;20441;-77
2022/03/19 06:21:19;;;;;;;12.65;7.20;;;;;;;2.53;100.00;104703.97;4999967;28;20045;-78
2022/03/19 06:23:45;;;;;;;18.85;7.75;;;;;;;2.60;100.00;104701.34;5018429;28;20033;-78
2022/03/19 06:26:11;;;;;;;18.75;7.18;;;;;;;2.68;100.00;104706.56;5020475;28;20034;-78
2022/03/19 06:28:36;;;;;;;18.15;8.15;;;;;;;2.65;100.00;104690.88;5020039;28;20030;-78
2022/03/19 06:31:02;;;;;;;22.02;8.63;;;;;;;2.74;100.00;104703.03;5021263;28;20099;-77
2022/03/19 06:33:27;;;;;;;13.38;6.13;;;;;;;2.67;100.00;104687.41;5014226;28;20040;-78
2022/03/19 06:38:37;;;;;;;15.85;6.75;;;;;;;2.91;100.00;104708.22;5013051;28;20072;-77
2022/03/19 06:41:02;;;;;;;12.35;7.03;;;;;;;2.85;100.00;104689.13;5021607;28;20037;-77
2022/03/19 06:43:28;;;;;;;7.97;5.35;;;;;;;2.97;100.00;104709.06;5002745;28;20033;-77
2022/03/19 06:45:57;;;;;;;20.08;7.63;;;;;;;3.06;100.00;104705.53;5020223;28;20120;-77
2022/03/19 06:48:23;;;;;;;16.60;7.32;;;;;;;3.06;100.00;104684.66;5019592;28;20034;-77
2022/03/19 06:50:50;;;;;;;11.80;6.22;;;;;;;3.08;100.00;104683.78;5014601;28;20156;-77
2022/03/19 06:53:15;;;;;;;13.00;6.40;;;;;;;3.28;99.66;104711.53;4998693;28;20109;-77
2022/03/19 06:55:41;;;;;;;14.30;6.15;;;;;;;3.16;99.19;104678.53;5016041;28;20532;-77
2022/03/19 06:58:06;;;;;;;17.75;5.75;;;;;;;3.27;99.32;104679.34;4998117;28;20608;-77
2022/03/19 07:00:32;;;;;;;9.93;5.82;;;;;;;3.53;99.33;104714.91;5013477;28;20037;-78
2022/03/19 07:02:57;;;;;;;15.15;5.65;;;;;;;3.62;98.67;104707.00;5017499;28;20100;-77
2022/03/19 07:05:25;;;;;;;15.35;6.32;;;;;;;3.75;98.48;104697.34;5013713;28;20026;-78
2022/03/19 07:07:51;;;;;;;12.20;5.15;;;;;;;3.82;97.18;104700.78;5017305;28;20022;-78
2022/03/19 07:10:18;;;;;;;14.45;5.80;;;;;;;3.90;97.14;104706.81;5016451;28;20119;-78
2022/03/19 07:12:49;;;;;;;9.68;4.68;;;;;;;4.00;96.25;104708.47;5019858;28;20022;-78
2022/03/19 07:15:17;;;;;;;16.83;4.82;;;;;;;4.13;95.79;104704.84;5016879;28;20076;-77
2022/03/19 07:17:43;;;;;;;14.18;5.20;;;;;;;4.31;95.47;104718.66;5015773;28;20071;-77
2022/03/19 07:20:11;;;;;;;13.68;4.13;;;;;;;4.35;95.01;104724.72;5020637;28;20064;-77
2022/03/19 07:22:45;;;;;;;9.95;4.65;;;;;;;4.44;93.78;104714.16;5021349;28;20063;-78
2022/03/19 07:25:10;;;;;;;7.80;3.42;;;;;;;4.53;92.94;104724.56;5020597;28;20028;-77
2022/03/19 07:27:36;;;;;;;13.00;4.65;;;;;;;4.65;92.55;104719.19;5005413;28;20381;-77
2022/03/19 07:30:01;;;;;;;12.45;4.07;;;;;;;4.64;91.55;104693.03;5017889;28;20030;-77
2022/03/19 07:32:26;;;;;;;9.93;4.00;;;;;;;4.85;91.13;104723.34;5019908;28;20029;-77
2022/03/19 07:34:52;;;;;;;12.32;4.40;;;;;;;4.94;90.95;104716.25;5016122;28;20101;-77
2022/03/19 07:37:17;;;;;;;9.00;3.78;;;;;;;5.10;90.38;104713.47;4997901;28;20470;-80
2022/03/19 07:39:43;;;;;;;8.70;3.90;;;;;;;5.12;89.78;104709.06;5020357;28;20135;-79
2022/03/19 07:42:09;;;;;;;6.82;3.63;;;;;;;5.11;89.58;104696.84;5018558;28;20037;-77
2022/03/19 07:44:34;;;;;;;9.30;4.68;;;;;;;5.33;89.56;104719.28;4988791;28;20029;-78
2022/03/19 07:46:59;;;;;;;13.57;4.78;;;;;;;5.18;88.81;104695.88;5002818;28;20034;-78
2022/03/19 07:49:25;;;;;;;13.55;4.63;;;;;;;5.46;88.46;104719.06;5013131;28;20376;-77
2022/03/19 07:51:55;;;;;;;10.68;4.43;;;;;;;5.54;87.94;104711.97;5006329;28;20163;-78
2022/03/19 07:54:27;;;;;;;9.48;4.45;;;;;;;5.72;87.36;104708.22;5013464;28;20111;-77
2022/03/19 07:56:53;;;;;;;10.10;4.15;;;;;;;5.90;87.09;104683.47;5015412;28;20121;-77
2022/03/19 07:59:20;;;;;;;12.48;4.30;;;;;;;6.67;85.99;104692.63;4993938;28;20112;-78
2022/03/19 08:01:48;;;;;;;12.80;4.00;;;;;;;7.40;82.15;104709.47;5009832;28;20037;-77
2022/03/19 08:04:15;;;;;;;12.38;4.35;;;;;;;8.59;78.29;104706.53;5011973;28;20051;-77
2022/03/19 08:06:40;;;;;;;12.88;3.70;;;;;;;9.38;74.70;104705.97;5016820;28;20036;-77
2022/03/19 08:09:08;;;;;;;11.05;4.18;;;;;;;9.82;73.32;104708.09;4994490;28;20026;-77
2022/03/19 08:11:33;;;;;;;10.80;4.03;;;;;;;10.03;70.00;104706.53;5016014;28;20032;-78
2022/03/19 08:13:59;;;;;;;11.88;3.95;;;;;;;11.51;68.46;104694.03;4996521;28;20061;-78
2022/03/19 08:16:25;;;;;;;7.85;3.25;;;;;;;12.23;62.77;104706.94;4992915;28;20444;-78
2022/03/19 08:18:51;;;;;;;12.70;3.70;;;;;;;12.09;61.87;104693.44;4995727;28;20030;-78
2022/03/19 08:21:16;;;;;;;13.02;3.17;;;;;;;12.80;61.03;104700.91;5012899;28;20488;-79
2022/03/19 08:23:42;;;;;;;13.13;3.38;;;;;;;13.45;59.52;104693.44;5014997;28;20037;-76
2022/03/19 08:26:07;;;;;;;8.45;2.78;;;;;;;14.53;57.92;104696.78;5010994;28;20037;-77
2022/03/19 08:28:32;;;;;;;10.90;3.15;;;;;;;14.76;54.13;104704.41;5014726;28;20509;-77
2022/03/19 08:30:58;;;;;;;10.75;3.60;;;;;;;13.60;55.59;104698.00;5015701;28;20087;-77
2022/03/19 08:33:25;;;;;;;8.88;3.13;;;;;;;14.18;56.60;104707.47;5007583;28;20425;-76
2022/03/19 08:35:50;;;;;;;7.72;3.28;;;;;;;15.04;53.24;104700.22;5013026;28;20038;-76
2022/03/19 08:41:00;;;;;;;11.07;3.40;;;;;;;14.58;52.22;104705.41;5015328;28;20132;-77
2022/03/19 08:43:26;;;;;;;11.30;3.20;;;;;;;14.79;55.20;104675.00;5009985;28;20093;-76
2022/03/19 08:45:51;;;;;;;8.73;3.42;;;;;;;15.15;53.12;104703.13;5009100;28;20042;-77
2022/03/19 08:48:20;;;;;;;10.70;3.15;;;;;;;13.57;53.83;104687.53;5012458;28;20132;-76
2022/03/19 08:50:46;;;;;;;10.23;2.67;;;;;;;13.15;56.12;104692.16;5013196;28;20088;-76
2022/03/19 08:53:15;;;;;;;12.35;2.90;;;;;;;14.90;53.31;104671.75;5013887;28;20033;-76
2022/03/19 08:55:41;;;;;;;5.47;2.25;;;;;;;15.15;53.25;104681.00;5012926;28;20555;-77
2022/03/19 08:58:08;;;;;;;8.55;2.38;;;;;;;14.25;50.77;104665.50;5015712;28;20590;-78
2022/03/19 09:00:35;;;;;;;9.10;2.33;;;;;;;12.67;54.29;104679.38;4997511;28;20091;-76
2022/03/19 09:03:01;;;;;;;9.70;2.67;;;;;;;12.87;53.96;104684.66;5012638;28;20057;-76
2022/03/19 09:05:30;;;;;;;8.60;2.13;;;;;;;12.79;54.44;104673.53;4996668;28;20155;-77
2022/03/19 09:07:56;;;;;;;8.50;2.22;;;;;;;12.63;55.64;104684.00;5009744;28;20072;-73
2022/03/19 09:10:21;;;;;;;4.93;1.98;;;;;;;13.90;53.71;104682.31;5013412;28;20601;-77
2022/03/19 09:12:47;;;;;;;10.32;2.70;;;;;;;12.59;54.75;104676.25;5018749;28;20068;-77
2022/03/19 09:15:13;;;;;;;10.90;2.47;;;;;;;12.61;53.89;104661.09;5010841;28;20576;-76
2022/03/19 09:17:39;;;;;;;10.02;2.50;;;;;;;12.13;54.25;104673.84;5011577;28;20112;-78
2022/03/19 09:20:05;;;;;;;13.70;2.65;;;;;;;12.06;55.56;104678.56;4995994;28;20041;-78
2022/03/19 09:22:31;;;;;;;8.25;2.30;;;;;;;11.98;55.71;104667.41;5016284;28;20521;-78
2022/03/19 09:24:57;;;;;;;11.88;2.10;;;;;;;11.59;56.03;104652.25;5014246;28;20038;-77
2022/03/19 09:27:22;;;;;;;10.38;2.20;;;;;;;12.71;55.20;104649.16;5010102;28;20018;-77
2022/03/19 09:29:48;;;;;;;12.07;2.38;;;;;;;14.77;51.04;104629.00;5009058;28;20036;-77
2022/03/19 09:32:17;;;;;;;9.75;2.45;;;;;;;13.92;51.05;104635.31;5014985;28;20111;-77
2022/03/19 09:34:43;;;;;;;8.70;2.50;;;;;;;13.40;52.52;104661.81;5015387;28;20041;-77
2022/03/19 09:37:09;;;;;;;5.47;1.92;;;;;;;15.67;48.31;104654.03;5019427;28;20037;-77
2022/03/19 09:39:34;;;;;;;8.77;2.03;;;;;;;13.93;48.95;104658.25;4999309;28;20030;-77
2022/03/19 09:42:01;;;;;;;6.45;1.95;;;;;;;13.91;49.80;104612.31;5019102;28;20093;-78
2022/03/19 09:44:26;;;;;;;9.45;2.08;;;;;;;15.73;46.85;104618.22;5004321;28;20494;-77
2022/03/19 09:46:53;;;;;;;10.80;2.35;;;;;;;16.44;45.99;104625.41;5017193;28;20116;-78
2022/03/19 09:49:19;;;;;;;8.68;2.17;;;;;;;15.59;45.90;104633.19;4998760;28;20463;-77
2022/03/19 09:51:52;;;;;;;6.90;2.30;;;;;;;17.19;44.36;104622.38;5025208;28;20104;-77
2022/03/19 09:54:17;;;;;;;7.45;2.30;;;;;;;17.25;42.43;104628.19;5019630;28;20201;-77
2022/03/19 09:56:43;;;;;;;8.13;2.65;;;;;;;16.40;45.12;104618.56;5006894;28;20040;-78
2022/03/19 09:59:08;;;;;;;8.10;2.42;;;;;;;16.12;43.57;104609.59;5009329;28;20533;-78
2022/03/19 10:01:37;;;;;;;6.07;2.17;;;;;;;15.91;46.19;104627.75;5005125;28;20108;-77
2022/03/19 10:04:04;;;;;;;6.38;1.90;;;;;;;17.61;44.24;104628.47;5019780;28;20533;-77
2022/03/19 10:09:20;;;;;;;7.53;2.30;;;;;;;17.27;44.80;104623.59;5008331;28;20071;-79
2022/03/19 10:11:51;;;;;;;10.77;2.85;;;;;;;18.93;41.84;104618.31;5016538;28;20046;-77
2022/03/19 10:14:22;;;;;;;8.20;2.05;;;;;;;18.95;41.20;104601.16;5022699;28;20024;-77
2022/03/19 10:16:51;;;;;;;9.93;2.47;;;;;;;16.99;42.55;104610.38;5027628;28;20342;-78
2022/03/19 10:19:17;;;;;;;6.57;1.90;;;;;;;19.49;40.66;104594.44;5019198;28;20053;-78
2022/03/19 10:21:42;;;;;;;7.15;2.25;;;;;;;21.01;38.38;104598.38;5002246;28;20056;-78
2022/03/19 10:24:24;;;;;;;6.88;1.98;;;;;;;21.94;37.10;104608.34;5017664;28;20026;-78
2022/03/19 10:26:49;;;;;;;9.25;1.98;;;;;;;19.51;38.40;104612.09;5019627;28;20089;-78
2022/03/19 10:29:17;;;;;;;5.90;1.92;;;;;;;17.90;40.98;104602.47;5001563;28;20028;-78
2022/03/19 10:31:45;;;;;;;6.20;1.70;;;;;;;17.57;40.52;104602.91;5020151;28;20030;-78
2022/03/19 10:34:12;;;;;;;6.35;2.00;;;;;;;18.42;40.65;104588.06;5022788;28;20041;-78
2022/03/19 10:36:39;;;;;;;6.05;2.00;;;;;;;20.40;40.26;104589.97;5005333;28;20588;-78
2022/03/19 10:39:11;;;;;;;5.25;1.85;;;;;;;19.61;37.83;104593.47;5020890;28;20490;-78
2022/03/19 10:41:37;;;;;;;7.78;2.33;;;;;;;20.29;38.69;104596.22;5020530;28;20144;-78
2022/03/19 10:44:17;;;;;;;6.88;1.73;;;;;;;20.19;39.65;104584.53;5023552;28;20430;-78
2022/03/19 10:46:48;;;;;;;4.93;1.70;;;;;;;21.89;36.52;104581.03;5022808;28;20045;-78
2022/03/19 10:49:14;;;;;;;;;;;;;;;23.34;33.71;104584.97;5018117;28;20017;-78
2022/03/19 10:51:43;;;;;;;4.28;1.58;;;;;;;23.24;33.33;104580.59;5004347;28;19971;-78
2022/03/19 10:54:11;;;;;;;3.58;1.42;;;;;;;20.53;34.17;104564.72;5014938;28;20473;-78
2022/03/19 10:56:37;;;;;;;4.28;1.33;;;;;;;21.02;35.51;104548.22;5006266;28;20029;-78
2022/03/19 10:59:02;;;;;;;2.88;0.95;;;;;;;22.10;33.55;104548.69;5006268;28;20369;-78
2022/03/19 11:01:29;;;;;;;3.60;1.10;;;;;;;22.53;32.67;104558.28;5023491;28;20033;-78
2022/03/19 11:03:55;;;;;;;3.40;1.00;;;;;;;21.56;32.07;104568.69;5024035;28;20025;-78
2022/03/19 11:06:25;;;;;;;3.28;0.90;;;;;;;21.06;33.93;104555.03;5018166;28;20032;-78
2022/03/19 11:08:51;;;;;;;3.60;0.93;;;;;;;21.29;33.58;104550.38;5024418;28;20033;-77
2022/03/19 11:11:22;;;;;;;5.13;1.60;;;;;;;20.88;35.17;104546.69;5003844;28;20036;-77
2022/03/19 11:13:49;;;;;;;2.55;1.35;;;;;;;21.35;34.67;104560.59;5022537;28;20109;-77
2022/03/19 11:16:17;;;;;;;4.63;1.13;;;;;;;18.34;37.65;104563.69;5017946;28;20088;-77
2022/03/19 11:18:43;;;;;;;6.47;1.50;;;;;;;19.53;38.40;104542.28;5021168;28;20037;-77
2022/03/19 11:21:14;;;;;;;5.68;1.60;;;;;;;21.76;36.12;104521.25;5014805;28;20322;-78
2022/03/19 11:23:55;;;;;;;4.20;1.67;;;;;;;22.34;34.47;104526.84;5019934;28;20426;-78
2022/03/19 11:26:28;;;;;;;4.90;1.40;;;;;;;22.28;33.65;104531.91;5023747;28;20026;-77
2022/03/19 11:28:54;;;;;;;5.07;1.45;;;;;;;18.38;37.46;104530.41;5018926;28;20041;-77
2022/03/19 11:31:29;;;;;;;3.15;1.35;;;;;;;19.82;37.52;104534.69;5003876;28;20163;-77
2022/03/19 11:34:21;;;;;;;3.55;1.10;;;;;;;21.70;34.36;104536.06;5022845;28;20029;-77
2022/03/19 11:36:57;;;;;;;4.85;1.27;;;;;;;20.70;34.81;104522.22;5017439;28;20037;-77
2022/03/19 11:39:24;;;;;;;3.35;1.00;;;;;;;19.22;35.39;104533.94;5020587;28;20027;-78